createdAt,value
2024-03-08T00:00:53.748Z,629.00
2024-03-08T00:01:53.841Z,631.00
2024-03-08T00:02:53.913Z,630.00
2024-03-08T00:03:53.926Z,631.00
2024-03-08T00:04:53.979Z,634.00
2024-03-08T00:05:54.145Z,635.00
2024-03-08T00:06:54.092Z,635.00
2024-03-08T00:07:54.167Z,636.00
2024-03-08T00:08:54.249Z,636.00
2024-03-08T00:09:54.226Z,634.00
2024-03-08T00:10:54.362Z,634.00
2024-03-08T00:11:54.398Z,634.00
2024-03-08T00:12:54.410Z,631.00
2024-03-08T00:13:54.436Z,631.00
2024-03-08T00:14:54.554Z,631.00
2024-03-08T00:15:54.586Z,632.00
2024-03-08T00:16:54.631Z,632.00
2024-03-08T00:17:54.850Z,634.00
2024-03-08T00:18:54.871Z,632.00
2024-03-08T00:19:54.841Z,631.00
2024-03-08T00:20:54.923Z,634.00
2024-03-08T00:21:55.054Z,634.00
2024-03-08T00:22:55.075Z,631.00
2024-03-08T00:23:55.240Z,627.00
2024-03-08T00:24:55.177Z,629.00
2024-03-08T00:25:55.209Z,628.00
2024-03-08T00:26:55.345Z,629.00
2024-03-08T00:27:55.336Z,630.00
2024-03-08T00:28:55.406Z,631.00
2024-03-08T00:29:55.574Z,632.00
2024-03-08T00:30:55.545Z,629.00
2024-03-08T00:31:55.626Z,626.00
2024-03-08T00:32:55.817Z,627.00
2024-03-08T00:33:55.928Z,625.00
2024-03-08T00:34:55.857Z,625.00
2024-03-08T00:35:56.005Z,626.00
2024-03-08T00:36:55.980Z,625.00
2024-03-08T00:37:56.084Z,629.00
2024-03-08T00:38:56.240Z,629.00
2024-03-08T00:39:56.184Z,632.00
2024-03-08T00:40:56.257Z,634.00
2024-03-08T00:41:56.338Z,635.00
2024-03-08T00:42:56.408Z,632.00
2024-03-08T00:43:56.431Z,627.00
2024-03-08T00:44:56.514Z,627.00
2024-03-08T00:45:56.529Z,625.00
2024-03-08T00:46:56.617Z,624.00
2024-03-08T00:47:56.833Z,621.00
2024-03-08T00:48:56.806Z,620.00
2024-03-08T00:49:56.803Z,620.00
2024-03-08T00:50:56.904Z,619.00
2024-03-08T00:51:56.887Z,619.00
2024-03-08T00:52:56.943Z,622.00
2024-03-08T00:53:57.076Z,623.00
2024-03-08T00:54:57.081Z,623.00
2024-03-08T00:55:57.145Z,625.00
2024-03-08T00:56:57.248Z,626.00
2024-03-08T00:57:57.271Z,627.00
2024-03-08T00:58:57.342Z,630.00
2024-03-08T00:59:57.504Z,632.00
2024-03-08T01:00:57.468Z,631.00
2024-03-08T01:01:57.506Z,632.00
2024-03-08T01:02:57.630Z,633.00
2024-03-08T01:03:57.617Z,634.00
2024-03-08T01:04:57.677Z,633.00
2024-03-08T01:05:57.826Z,630.00
2024-03-08T01:06:57.791Z,627.00
2024-03-08T01:07:57.856Z,626.00
2024-03-08T01:08:57.972Z,625.00
2024-03-08T01:09:57.998Z,624.00
2024-03-08T01:10:58.070Z,621.00
2024-03-08T01:11:58.168Z,621.00
2024-03-08T01:12:58.185Z,623.00
2024-03-08T01:13:58.216Z,625.00
2024-03-08T01:14:58.361Z,626.00
2024-03-08T01:15:58.338Z,627.00
2024-03-08T01:16:58.421Z,626.00
2024-03-08T01:17:58.673Z,626.00
2024-03-08T01:18:58.722Z,624.00
2024-03-08T01:19:58.582Z,620.00
2024-03-08T01:20:58.668Z,617.00
2024-03-08T01:21:58.673Z,619.00
2024-03-08T01:22:58.734Z,618.00
2024-03-08T01:23:58.845Z,617.00
2024-03-08T01:24:58.845Z,615.00
2024-03-08T01:25:58.932Z,616.00
2024-03-08T01:26:58.957Z,615.00
2024-03-08T01:27:59.021Z,614.00
2024-03-08T01:28:59.077Z,614.00
2024-03-08T01:29:59.228Z,616.00
2024-03-08T01:30:59.181Z,618.00
2024-03-08T01:31:59.266Z,619.00
2024-03-08T01:32:59.393Z,622.00
2024-03-08T01:33:59.482Z,620.00
2024-03-08T01:34:59.497Z,622.00
2024-03-08T01:35:59.619Z,623.00
2024-03-08T01:36:59.724Z,621.00
2024-03-08T01:37:59.705Z,622.00
2024-03-08T01:38:59.791Z,620.00
2024-03-08T01:39:59.825Z,623.00
2024-03-08T01:40:59.883Z,624.00
2024-03-08T01:41:59.956Z,625.00
2024-03-08T01:43:00.041Z,624.00
2024-03-08T01:44:00.112Z,622.00
2024-03-08T01:45:00.250Z,624.00
2024-03-08T01:46:00.241Z,626.00
2024-03-08T01:47:00.352Z,625.00
2024-03-08T01:48:00.463Z,625.00
2024-03-08T01:49:00.517Z,626.00
2024-03-08T01:50:00.514Z,627.00
2024-03-08T01:51:00.681Z,625.00
2024-03-08T01:52:00.790Z,624.00
2024-03-08T01:53:00.796Z,622.00
2024-03-08T01:54:00.801Z,621.00
2024-03-08T01:55:00.859Z,623.00
2024-03-08T01:56:00.969Z,620.00
2024-03-08T01:57:01.094Z,619.00
2024-03-08T01:58:01.067Z,622.00
2024-03-08T01:59:01.118Z,624.00
2024-03-08T02:00:01.255Z,624.00
2024-03-08T02:01:01.296Z,624.00
2024-03-08T02:02:01.326Z,624.00
2024-03-08T02:03:01.441Z,623.00
2024-03-08T02:04:01.476Z,621.00
2024-03-08T02:05:01.568Z,620.00
2024-03-08T02:06:01.638Z,619.00
2024-03-08T02:07:01.671Z,621.00
2024-03-08T02:08:01.771Z,622.00
2024-03-08T02:09:01.837Z,625.00
2024-03-08T02:10:01.935Z,624.00
2024-03-08T02:11:01.976Z,623.00
2024-03-08T02:12:02.053Z,622.00
2024-03-08T02:13:02.113Z,624.00
2024-03-08T02:14:02.157Z,623.00
2024-03-08T02:15:02.334Z,623.00
2024-03-08T02:16:02.315Z,625.00
2024-03-08T02:17:02.351Z,626.00
2024-03-08T02:18:02.530Z,623.00
2024-03-08T02:19:02.518Z,622.00
2024-03-08T02:20:02.586Z,622.00
2024-03-08T02:21:02.669Z,620.00
2024-03-08T02:22:02.719Z,618.00
2024-03-08T02:23:02.805Z,619.00
2024-03-08T02:24:02.908Z,620.00
2024-03-08T02:25:02.932Z,618.00
2024-03-08T02:26:03.076Z,621.00
2024-03-08T02:27:03.172Z,624.00
2024-03-08T02:28:03.192Z,623.00
2024-03-08T02:29:03.190Z,619.00
2024-03-08T02:30:03.361Z,615.00
2024-03-08T02:31:03.407Z,614.00
2024-03-08T02:32:03.406Z,614.00
2024-03-08T02:33:03.739Z,614.00
2024-03-08T02:34:03.548Z,615.00
2024-03-08T02:35:03.635Z,615.00
2024-03-08T02:36:03.717Z,617.00
2024-03-08T02:37:03.782Z,618.00
2024-03-08T02:38:03.858Z,617.00
2024-03-08T02:39:03.951Z,619.00
2024-03-08T02:40:03.974Z,619.00
2024-03-08T02:41:04.026Z,622.00
2024-03-08T02:42:04.135Z,621.00
2024-03-08T02:43:04.205Z,623.00
2024-03-08T02:44:04.229Z,622.00
2024-03-08T02:45:04.384Z,621.00
2024-03-08T02:46:04.386Z,621.00
2024-03-08T02:47:04.446Z,622.00
2024-03-08T02:48:04.644Z,621.00
2024-03-08T02:49:04.563Z,623.00
2024-03-08T02:50:04.643Z,623.00
2024-03-08T02:51:04.769Z,622.00
2024-03-08T02:52:04.767Z,623.00
2024-03-08T02:53:04.901Z,622.00
2024-03-08T02:54:04.944Z,623.00
2024-03-08T02:55:04.976Z,623.00
2024-03-08T02:56:05.046Z,623.00
2024-03-08T02:57:05.143Z,620.00
2024-03-08T02:58:05.172Z,618.00
2024-03-08T02:59:05.207Z,615.00
2024-03-08T03:00:05.391Z,615.00
2024-03-08T03:01:05.352Z,618.00
2024-03-08T03:02:05.399Z,617.00
2024-03-08T03:03:05.600Z,618.00
2024-03-08T03:04:05.532Z,615.00
2024-03-08T03:05:05.599Z,615.00
2024-03-08T03:06:05.692Z,612.00
2024-03-08T03:07:05.731Z,609.00
2024-03-08T03:08:05.866Z,607.00
2024-03-08T03:09:05.865Z,608.00
2024-03-08T03:10:05.939Z,608.00
2024-03-08T03:11:06.001Z,611.00
2024-03-08T03:12:06.104Z,611.00
2024-03-08T03:13:06.496Z,612.00
2024-03-08T03:14:06.170Z,610.00
2024-03-08T03:15:06.257Z,609.00
2024-03-08T03:16:06.271Z,608.00
2024-03-08T03:17:06.307Z,608.00
2024-03-08T03:18:06.442Z,611.00
2024-03-08T03:19:06.396Z,614.00
2024-03-08T03:20:06.438Z,616.00
2024-03-08T03:21:06.539Z,616.00
2024-03-08T03:22:06.528Z,615.00
2024-03-08T03:23:06.620Z,613.00
2024-03-08T03:24:06.679Z,612.00
2024-03-08T03:25:06.680Z,611.00
2024-03-08T03:26:06.708Z,612.00
2024-03-08T03:27:06.844Z,612.00
2024-03-08T03:28:06.848Z,614.00
2024-03-08T03:29:06.873Z,613.00
2024-03-08T03:30:07.079Z,610.00
2024-03-08T03:31:09.581Z,608.00
2024-03-08T03:32:06.939Z,610.00
2024-03-08T03:33:07.138Z,611.00
2024-03-08T03:34:06.959Z,611.00
2024-03-08T03:35:06.954Z,611.00
2024-03-08T03:36:07.000Z,608.00
2024-03-08T03:37:06.949Z,606.00
2024-03-08T03:38:07.199Z,605.00
2024-03-08T03:39:07.079Z,604.00
2024-03-08T03:40:06.973Z,605.00
2024-03-08T03:41:06.979Z,602.00
2024-03-08T03:42:07.035Z,601.00
2024-03-08T03:43:07.108Z,600.00
2024-03-08T03:44:06.963Z,600.00
2024-03-08T03:45:07.082Z,598.00
2024-03-08T03:46:06.982Z,599.00
2024-03-08T03:47:06.974Z,600.00
2024-03-08T03:48:07.080Z,602.00
2024-03-08T03:49:06.976Z,601.00
2024-03-08T03:50:06.978Z,600.00
2024-03-08T03:51:07.030Z,600.00
2024-03-08T03:52:06.996Z,599.00
2024-03-08T03:53:07.288Z,598.00
2024-03-08T03:54:07.062Z,598.00
2024-03-08T03:55:07.021Z,599.00
2024-03-08T03:56:06.991Z,603.00
2024-03-08T03:57:07.139Z,605.00
2024-03-08T03:58:07.035Z,606.00
2024-03-08T03:59:07.001Z,611.00
2024-03-08T04:00:07.070Z,611.00
2024-03-08T04:01:07.026Z,609.00
2024-03-08T04:02:06.999Z,611.00
2024-03-08T04:03:07.320Z,612.00
2024-03-08T04:04:07.006Z,614.00
2024-03-08T04:05:07.012Z,611.00
2024-03-08T04:06:07.080Z,612.00
2024-03-08T04:07:07.018Z,612.00
2024-03-08T04:08:07.052Z,615.00
2024-03-08T04:09:07.083Z,616.00
2024-03-08T04:10:07.016Z,617.00
2024-03-08T04:11:07.041Z,618.00
2024-03-08T04:12:07.061Z,619.00
2024-03-08T04:13:07.078Z,615.00
2024-03-08T04:14:07.016Z,614.00
2024-03-08T04:15:07.079Z,615.00
2024-03-08T04:16:07.029Z,615.00
2024-03-08T04:17:07.086Z,612.00
2024-03-08T04:18:07.345Z,615.00
2024-03-08T04:19:07.226Z,614.00
2024-03-08T04:20:07.276Z,615.00
2024-03-08T04:21:07.356Z,615.00
2024-03-08T04:22:07.380Z,613.00
2024-03-08T04:23:07.468Z,613.00
2024-03-08T04:24:07.518Z,613.00
2024-03-08T04:25:07.546Z,610.00
2024-03-08T04:26:07.609Z,610.00
2024-03-08T04:27:07.711Z,611.00
2024-03-08T04:28:07.668Z,610.00
2024-03-08T04:29:07.697Z,609.00
2024-03-08T04:30:07.797Z,607.00
2024-03-08T04:31:07.830Z,606.00
2024-03-08T04:32:07.897Z,608.00
2024-03-08T04:33:08.036Z,607.00
2024-03-08T04:34:08.092Z,606.00
2024-03-08T04:35:08.047Z,608.00
2024-03-08T04:36:08.171Z,609.00
2024-03-08T04:37:08.170Z,606.00
2024-03-08T04:38:15.462Z,593.00
2024-03-08T04:39:15.441Z,593.00
2024-03-08T04:40:15.412Z,594.00
2024-03-08T04:41:15.415Z,595.00
2024-03-08T04:42:15.467Z,596.00
2024-03-08T04:43:15.460Z,595.00
2024-03-08T04:44:15.438Z,597.00
2024-03-08T04:45:15.513Z,598.00
2024-03-08T04:46:15.426Z,599.00
2024-03-08T04:47:15.447Z,603.00
2024-03-08T04:48:15.581Z,604.00
2024-03-08T04:49:15.428Z,605.00
2024-03-08T04:50:15.427Z,606.00
2024-03-08T04:51:15.470Z,605.00
2024-03-08T04:52:15.432Z,606.00
2024-03-08T04:53:15.477Z,607.00
2024-03-08T04:54:15.514Z,606.00
2024-03-08T04:55:15.447Z,608.00
2024-03-08T04:56:15.430Z,608.00
2024-03-08T04:57:15.636Z,610.00
2024-03-08T04:58:15.479Z,607.00
2024-03-08T04:59:15.442Z,604.00
2024-03-08T05:00:15.493Z,602.00
2024-03-08T05:01:15.566Z,602.00
2024-03-08T05:02:15.460Z,600.00
2024-03-08T05:03:15.527Z,599.00
2024-03-08T05:04:15.448Z,600.00
2024-03-08T05:05:15.453Z,600.00
2024-03-08T05:06:15.537Z,596.00
2024-03-08T05:07:15.461Z,596.00
2024-03-08T05:08:15.446Z,598.00
2024-03-08T05:09:15.590Z,598.00
2024-03-08T05:10:15.505Z,597.00
2024-03-08T05:11:15.505Z,598.00
2024-03-08T05:12:15.536Z,598.00
2024-03-08T05:13:15.464Z,599.00
2024-03-08T05:14:15.461Z,601.00
2024-03-08T05:15:15.521Z,598.00
2024-03-08T05:16:15.499Z,596.00
2024-03-08T05:17:15.493Z,592.00
2024-03-08T05:18:15.681Z,592.00
2024-03-08T05:19:15.613Z,593.00
2024-03-08T05:20:15.641Z,592.00
2024-03-08T05:21:15.739Z,590.00
2024-03-08T05:22:15.685Z,588.00
2024-03-08T05:23:15.721Z,588.00
2024-03-08T05:24:15.824Z,589.00
2024-03-08T05:25:15.744Z,589.00
2024-03-08T05:26:15.780Z,590.00
2024-03-08T05:27:15.903Z,589.00
2024-03-08T05:28:15.902Z,590.00
2024-03-08T05:29:16.308Z,591.00
2024-03-08T05:30:16.126Z,594.00
2024-03-08T05:31:16.020Z,594.00
2024-03-08T05:32:16.043Z,596.00
2024-03-08T05:33:16.170Z,599.00
2024-03-08T05:34:16.080Z,600.00
2024-03-08T05:35:16.108Z,599.00
2024-03-08T05:36:16.280Z,600.00
2024-03-08T05:37:16.176Z,603.00
2024-03-08T05:38:16.182Z,602.00
2024-03-08T05:39:16.372Z,600.00
2024-03-08T05:40:18.024Z,603.00
2024-03-08T05:41:16.215Z,604.00
2024-03-08T05:42:16.363Z,605.00
2024-03-08T05:43:16.259Z,606.00
2024-03-08T05:44:16.221Z,608.00
2024-03-08T05:45:16.306Z,606.00
2024-03-08T05:46:16.242Z,606.00
2024-03-08T05:47:16.221Z,609.00
2024-03-08T05:48:16.301Z,610.00
2024-03-08T05:49:16.465Z,611.00
2024-03-08T05:50:16.230Z,611.00
2024-03-08T05:51:16.310Z,610.00
2024-03-08T05:52:16.234Z,610.00
2024-03-08T05:53:16.232Z,613.00
2024-03-08T05:54:18.371Z,613.00
2024-03-08T05:55:16.255Z,615.00
2024-03-08T05:56:16.235Z,618.00
2024-03-08T05:57:16.351Z,619.00
2024-03-08T05:58:16.256Z,622.00
2024-03-08T05:59:16.259Z,628.00
2024-03-08T06:00:16.298Z,630.00
2024-03-08T06:01:16.321Z,633.00
2024-03-08T06:02:16.285Z,633.00
2024-03-08T06:03:16.365Z,616.00
2024-03-08T06:04:16.247Z,583.00
2024-03-08T06:05:16.248Z,585.00
2024-03-08T06:06:16.330Z,574.00
2024-03-08T06:07:16.262Z,571.00
2024-03-08T06:08:16.323Z,568.00
2024-03-08T06:09:16.299Z,564.00
2024-03-08T06:10:16.259Z,563.00
2024-03-08T06:11:16.339Z,560.00
2024-03-08T06:12:16.283Z,557.00
2024-03-08T06:13:16.300Z,553.00
2024-03-08T06:14:16.278Z,552.00
2024-03-08T06:15:16.512Z,550.00
2024-03-08T06:16:16.290Z,549.00
2024-03-08T06:17:16.264Z,548.00
2024-03-08T06:18:16.394Z,548.00
2024-03-08T06:19:16.252Z,546.00
2024-03-08T06:20:16.281Z,545.00
2024-03-08T06:21:16.304Z,547.00
2024-03-08T06:22:16.301Z,545.00
2024-03-08T06:23:16.286Z,542.00
2024-03-08T06:24:16.450Z,541.00
2024-03-08T06:25:16.259Z,544.00
2024-03-08T06:26:16.253Z,543.00
2024-03-08T06:27:16.298Z,540.00
2024-03-08T06:28:16.292Z,539.00
2024-03-08T06:29:16.285Z,537.00
2024-03-08T06:30:16.370Z,542.00
2024-03-08T06:31:16.265Z,544.00
2024-03-08T06:32:16.266Z,545.00
2024-03-08T06:33:16.478Z,544.00
2024-03-08T06:34:16.309Z,546.00
2024-03-08T06:35:18.076Z,549.00
2024-03-08T06:36:16.400Z,551.00
2024-03-08T06:37:16.378Z,552.00
2024-03-08T06:38:16.469Z,563.00
2024-03-08T06:39:16.524Z,575.00
2024-03-08T06:40:16.580Z,592.00
2024-03-08T06:41:16.760Z,620.00
2024-03-08T06:42:39.195Z,645.00
2024-03-08T06:43:16.690Z,676.00
2024-03-08T06:44:16.667Z,708.00
2024-03-08T06:45:16.759Z,808.00
2024-03-08T06:46:16.727Z,793.00
2024-03-08T06:47:16.665Z,798.00
2024-03-08T06:48:16.764Z,863.00
2024-03-08T06:49:16.677Z,881.00
2024-03-08T06:50:16.687Z,919.00
2024-03-08T06:51:16.697Z,949.00
2024-03-08T06:52:16.677Z,1021.00
2024-03-08T06:53:18.269Z,1021.00
2024-03-08T06:54:16.736Z,1037.00
2024-03-08T06:55:16.681Z,1069.00
2024-03-08T06:56:16.693Z,1070.00
2024-03-08T06:57:16.717Z,1069.00
2024-03-08T06:58:38.691Z,1073.00
2024-03-08T06:59:16.683Z,1070.00
2024-03-08T07:00:16.778Z,1065.00
2024-03-08T07:01:16.699Z,1065.00
2024-03-08T07:02:16.691Z,1067.00
2024-03-08T07:03:16.728Z,1076.00
2024-03-08T07:04:16.763Z,1081.00
2024-03-08T07:05:16.702Z,1090.00
2024-03-08T07:06:16.821Z,1163.00
2024-03-08T07:07:16.692Z,1170.00
2024-03-08T07:08:16.707Z,1181.00
2024-03-08T07:09:16.805Z,1224.00
2024-03-08T07:10:16.714Z,1245.00
2024-03-08T07:11:16.721Z,1271.00
2024-03-08T07:12:16.790Z,1282.00
2024-03-08T07:13:16.706Z,1291.00
2024-03-08T07:14:16.759Z,1389.00
2024-03-08T07:15:16.830Z,1384.00
2024-03-08T07:16:16.731Z,1433.00
2024-03-08T07:17:16.720Z,1425.00
2024-03-08T07:18:16.874Z,1437.00
2024-03-08T07:19:16.740Z,1480.00
2024-03-08T07:20:16.733Z,1500.00
2024-03-08T07:21:16.870Z,1517.00
2024-03-08T07:22:16.709Z,1522.00
2024-03-08T07:23:16.754Z,1521.00
2024-03-08T07:24:16.808Z,1515.00
2024-03-08T07:25:16.752Z,1520.00
2024-03-08T07:26:38.854Z,1569.00
2024-03-08T07:27:16.830Z,1571.00
2024-03-08T07:28:16.827Z,1577.00
2024-03-08T07:29:16.804Z,1594.00
2024-03-08T07:30:16.823Z,1635.00
2024-03-08T07:31:16.809Z,1638.00
2024-03-08T07:32:16.828Z,1640.00
2024-03-08T07:33:16.983Z,1651.00
2024-03-08T07:34:16.814Z,1675.00
2024-03-08T07:35:16.836Z,1673.00
2024-03-08T07:36:16.839Z,1675.00
2024-03-08T07:37:16.832Z,1677.00
2024-03-08T07:38:16.890Z,1678.00
2024-03-08T07:39:16.908Z,1724.00
2024-03-08T07:40:16.877Z,1818.00
2024-03-08T07:41:16.822Z,1802.00
2024-03-08T07:42:16.868Z,1799.00
2024-03-08T07:43:16.823Z,1792.00
2024-03-08T07:44:16.822Z,1807.00
2024-03-08T07:45:16.976Z,1843.00
2024-03-08T07:46:16.818Z,1862.00
2024-03-08T07:47:16.845Z,1871.00
2024-03-08T07:48:38.995Z,1886.00
2024-03-08T07:49:16.819Z,1993.00
2024-03-08T07:50:16.861Z,2001.00
2024-03-08T07:51:17.003Z,2038.00
2024-03-08T07:52:16.854Z,2024.00
2024-03-08T07:53:16.882Z,2024.00
2024-03-08T07:54:16.875Z,2022.00
2024-03-08T07:55:16.826Z,2023.00
2024-03-08T07:56:16.840Z,2028.00
2024-03-08T07:57:16.840Z,2027.00
2024-03-08T07:58:16.882Z,2028.00
2024-03-08T07:59:16.839Z,2082.00
2024-03-08T08:00:16.859Z,2079.00
2024-03-08T08:01:16.882Z,2087.00
2024-03-08T08:02:16.950Z,2142.00
2024-03-08T08:03:16.905Z,2127.00
2024-03-08T08:04:16.861Z,2119.00
2024-03-08T08:05:16.849Z,2117.00
2024-03-08T08:06:17.005Z,2122.00
2024-03-08T08:07:16.901Z,2131.00
2024-03-08T08:08:16.884Z,2163.00
2024-03-08T08:09:16.853Z,2169.00
2024-03-08T08:10:16.884Z,2189.00
2024-03-08T08:11:17.005Z,2240.00
2024-03-08T08:12:16.856Z,2262.00
2024-03-08T08:13:17.074Z,2256.00
2024-03-08T08:14:16.858Z,2256.00
2024-03-08T08:15:16.878Z,2265.00
2024-03-08T08:16:16.920Z,2317.00
2024-03-08T08:17:16.855Z,2308.00
2024-03-08T08:18:16.894Z,2310.00
2024-03-08T08:19:16.908Z,2327.00
2024-03-08T08:20:16.849Z,2343.00
2024-03-08T08:21:16.878Z,2328.00
2024-03-08T08:22:16.931Z,2370.00
2024-03-08T08:23:16.920Z,2384.00
2024-03-08T08:24:16.878Z,2399.00
2024-03-08T08:25:17.009Z,2425.00
2024-03-08T08:26:16.881Z,2382.00
2024-03-08T08:27:16.862Z,2400.00
2024-03-08T08:28:16.899Z,2487.00
2024-03-08T08:29:16.851Z,2605.00
2024-03-08T08:30:16.853Z,2599.00
2024-03-08T08:31:16.900Z,2539.00
2024-03-08T08:32:16.948Z,2702.00
2024-03-08T08:33:17.049Z,2716.00
2024-03-08T08:34:17.133Z,2711.00
2024-03-08T08:35:17.164Z,2548.00
2024-03-08T08:36:17.263Z,2607.00
2024-03-08T08:37:18.586Z,2656.00
2024-03-08T08:38:17.373Z,2659.00
2024-03-08T08:39:17.309Z,2663.00
2024-03-08T08:40:17.364Z,2664.00
2024-03-08T08:41:17.316Z,2661.00
2024-03-08T08:42:17.316Z,2656.00
2024-03-08T08:43:17.406Z,2654.00
2024-03-08T08:44:17.490Z,2643.00
2024-03-08T08:45:18.287Z,2631.00
2024-03-08T08:46:17.352Z,2615.00
2024-03-08T08:47:17.322Z,2599.00
2024-03-08T08:48:17.360Z,2589.00
2024-03-08T08:49:17.393Z,2584.00
2024-03-08T08:50:17.398Z,2578.00
2024-03-08T08:51:17.296Z,2499.00
2024-03-08T08:52:17.789Z,2512.00
2024-03-08T08:53:17.362Z,2500.00
2024-03-08T08:54:17.315Z,2357.00
2024-03-08T08:55:17.401Z,2386.00
2024-03-08T08:56:17.318Z,2368.00
2024-03-08T08:57:17.302Z,2468.00
2024-03-08T08:58:17.373Z,2501.00
2024-03-08T08:59:20.361Z,2496.00
2024-03-08T09:00:17.341Z,2489.00
2024-03-08T09:01:17.354Z,2485.00
2024-03-08T09:02:18.155Z,2489.00
2024-03-08T09:03:17.314Z,2462.00
2024-03-08T09:04:17.376Z,2529.00
2024-03-08T09:05:17.334Z,2540.00
2024-03-08T09:06:17.332Z,2551.00
2024-03-08T09:07:17.425Z,2557.00
2024-03-08T09:08:17.365Z,2560.00
2024-03-08T09:09:17.320Z,2579.00
2024-03-08T09:10:18.417Z,2588.00
2024-03-08T09:11:17.389Z,2630.00
2024-03-08T09:12:17.350Z,2638.00
2024-03-08T09:13:24.951Z,2669.00
2024-03-08T09:14:18.369Z,2712.00
2024-03-08T09:15:17.328Z,2743.00
2024-03-08T09:16:18.233Z,2783.00
2024-03-08T09:17:17.421Z,2940.00
2024-03-08T09:18:17.329Z,2924.00
2024-03-08T09:19:17.404Z,2918.00
2024-03-08T09:20:17.328Z,2912.00
2024-03-08T09:21:17.344Z,2983.00
2024-03-08T09:22:17.415Z,2975.00
2024-03-08T09:23:17.374Z,2908.00
2024-03-08T09:24:17.347Z,2899.00
2024-03-08T09:25:17.420Z,2837.00
2024-03-08T09:26:23.237Z,2823.00
2024-03-08T09:27:18.365Z,2969.00
2024-03-08T09:28:17.726Z,2960.00
2024-03-08T09:29:17.358Z,2862.00
2024-03-08T09:30:17.360Z,2896.00
2024-03-08T09:31:17.409Z,2936.00
2024-03-08T09:32:17.360Z,2806.00
2024-03-08T09:33:17.449Z,2727.00
2024-03-08T09:34:20.604Z,2758.00
2024-03-08T09:35:18.383Z,2699.00
2024-03-08T09:36:17.379Z,2681.00
2024-03-08T09:37:17.403Z,2542.00
2024-03-08T09:38:17.420Z,2463.00
2024-03-08T09:39:17.382Z,2466.00
2024-03-08T09:40:17.400Z,2622.00
2024-03-08T09:41:17.388Z,2599.00
2024-03-08T09:42:17.455Z,2605.00
2024-03-08T09:43:17.730Z,2590.00
2024-03-08T09:44:17.375Z,2707.00
2024-03-08T09:45:17.403Z,2599.00
2024-03-08T09:46:17.450Z,2651.00
2024-03-08T09:47:17.496Z,2589.00
2024-03-08T09:48:17.429Z,2583.00
2024-03-08T09:49:17.499Z,2598.00
2024-03-08T09:50:17.399Z,2683.00
2024-03-08T09:51:17.452Z,2675.00
2024-03-08T09:52:17.525Z,2664.00
2024-03-08T09:53:17.589Z,2678.00
2024-03-08T09:54:22.869Z,2776.00
2024-03-08T09:55:18.692Z,2777.00
2024-03-08T09:56:17.610Z,2771.00
2024-03-08T09:57:19.637Z,2776.00
2024-03-08T09:58:17.672Z,2784.00
2024-03-08T09:59:17.634Z,2828.00
2024-03-08T10:00:17.701Z,2823.00
2024-03-08T10:01:17.705Z,2822.00
2024-03-08T10:02:17.935Z,2842.00
2024-03-08T10:03:17.669Z,2863.00
2024-03-08T10:04:17.680Z,2862.00
2024-03-08T10:05:17.646Z,2858.00
2024-03-08T10:06:17.621Z,2853.00
2024-03-08T10:07:17.632Z,2854.00
2024-03-08T10:08:17.664Z,2858.00
2024-03-08T10:09:17.638Z,2866.00
2024-03-08T10:10:17.698Z,2872.00
2024-03-08T10:11:17.695Z,2870.00
2024-03-08T10:12:17.672Z,2865.00
2024-03-08T10:13:17.732Z,2867.00
2024-03-08T10:14:19.253Z,2871.00
2024-03-08T10:15:17.634Z,2867.00
2024-03-08T10:16:17.646Z,2866.00
2024-03-08T10:17:17.639Z,2861.00
2024-03-08T10:18:17.697Z,2860.00
2024-03-08T10:19:17.673Z,2857.00
2024-03-08T10:20:17.668Z,2855.00
2024-03-08T10:21:17.642Z,2853.00
2024-03-08T10:22:17.672Z,2850.00
2024-03-08T10:23:17.712Z,2853.00
2024-03-08T10:24:17.749Z,2846.00
2024-03-08T10:25:17.851Z,2840.00
2024-03-08T10:26:17.895Z,2837.00
2024-03-08T10:27:17.952Z,2829.00
2024-03-08T10:28:18.073Z,2830.00
2024-03-08T10:29:18.091Z,2826.00
2024-03-08T10:30:18.203Z,2827.00
2024-03-08T10:31:19.483Z,2823.00
2024-03-08T10:32:18.271Z,2815.00
2024-03-08T10:33:18.277Z,2810.00
2024-03-08T10:34:18.425Z,2808.00
2024-03-08T10:35:18.443Z,2805.00
2024-03-08T10:36:18.507Z,2801.00
2024-03-08T10:37:18.654Z,2795.00
2024-03-08T10:38:18.655Z,2796.00
2024-03-08T10:39:18.760Z,2793.00
2024-03-08T10:40:18.827Z,2790.00
2024-03-08T10:41:18.861Z,2792.00
2024-03-08T10:42:18.890Z,2785.00
2024-03-08T10:43:18.958Z,2779.00
2024-03-08T10:44:19.017Z,2772.00
2024-03-08T10:45:19.020Z,2768.00
2024-03-08T10:46:19.122Z,2761.00
2024-03-08T10:47:19.164Z,2753.00
2024-03-08T10:48:19.260Z,2749.00
2024-03-08T10:49:19.293Z,2747.00
2024-03-08T10:50:19.311Z,2744.00
2024-03-08T10:51:19.382Z,2740.00
2024-03-08T10:52:19.452Z,2736.00
2024-03-08T10:53:19.486Z,2732.00
2024-03-08T10:54:19.570Z,2726.00
2024-03-08T10:55:19.658Z,2726.00
2024-03-08T10:56:19.644Z,2718.00
2024-03-08T10:57:19.699Z,2721.00
2024-03-08T10:58:19.754Z,2713.00
2024-03-08T10:59:19.765Z,2709.00
2024-03-08T11:00:19.798Z,2709.00
2024-03-08T11:01:19.892Z,2704.00
2024-03-08T11:02:19.860Z,2704.00
2024-03-08T11:03:19.864Z,2701.00
2024-03-08T11:04:19.966Z,2694.00
2024-03-08T11:05:19.988Z,2687.00
2024-03-08T11:06:20.029Z,2682.00
2024-03-08T11:07:20.097Z,2676.00
2024-03-08T11:08:20.147Z,2672.00
2024-03-08T11:09:20.185Z,2666.00
2024-03-08T11:10:20.269Z,2666.00
2024-03-08T11:11:20.355Z,2668.00
2024-03-08T11:12:20.283Z,2669.00
2024-03-08T11:13:20.330Z,2664.00
2024-03-08T11:14:20.380Z,2654.00
2024-03-08T11:15:20.452Z,2654.00
2024-03-08T11:16:20.355Z,2651.00
2024-03-08T11:17:20.365Z,2649.00
2024-03-08T11:18:20.423Z,2643.00
2024-03-08T11:19:20.411Z,2641.00
2024-03-08T11:20:20.373Z,2639.00
2024-03-08T11:21:20.410Z,2642.00
2024-03-08T11:22:20.423Z,2643.00
2024-03-08T11:23:20.399Z,2640.00
2024-03-08T11:24:20.421Z,2637.00
2024-03-08T11:25:20.471Z,2631.00
2024-03-08T11:26:20.474Z,2622.00
2024-03-08T11:27:20.482Z,2612.00
2024-03-08T11:28:20.967Z,2607.00
2024-03-08T11:29:20.486Z,2602.00
2024-03-08T11:30:20.523Z,2602.00
2024-03-08T11:31:20.553Z,2601.00
2024-03-08T11:32:20.503Z,2595.00
2024-03-08T11:33:20.492Z,2594.00
2024-03-08T11:34:20.551Z,2588.00
2024-03-08T11:35:20.504Z,2586.00
2024-03-08T11:36:20.516Z,2582.00
2024-03-08T11:37:20.557Z,2581.00
2024-03-08T11:38:20.513Z,2579.00
2024-03-08T11:39:20.561Z,2575.00
2024-03-08T11:40:20.823Z,2575.00
2024-03-08T11:41:20.562Z,2569.00
2024-03-08T11:42:20.654Z,2557.00
2024-03-08T11:43:20.584Z,2555.00
2024-03-08T11:44:20.569Z,2554.00
2024-03-08T11:45:20.647Z,2547.00
2024-03-08T11:46:20.648Z,2541.00
2024-03-08T11:47:20.643Z,2541.00
2024-03-08T11:48:20.722Z,2544.00
2024-03-08T11:49:20.720Z,2547.00
2024-03-08T11:50:20.835Z,2546.00
2024-03-08T11:51:20.711Z,2539.00
2024-03-08T11:52:20.787Z,2529.00
2024-03-08T11:53:20.721Z,2528.00
2024-03-08T11:54:20.770Z,2525.00
2024-03-08T11:55:21.804Z,2521.00
2024-03-08T11:56:20.776Z,2516.00
2024-03-08T11:57:20.788Z,2510.00
2024-03-08T11:58:20.839Z,2505.00
2024-03-08T11:59:20.802Z,2502.00
2024-03-08T12:00:20.823Z,2502.00
2024-03-08T12:01:20.866Z,2499.00
2024-03-08T12:02:20.878Z,2500.00
2024-03-08T12:03:20.857Z,2499.00
2024-03-08T12:04:20.935Z,2496.00
2024-03-08T12:05:20.970Z,2493.00
2024-03-08T12:06:20.872Z,2488.00
2024-03-08T12:07:20.911Z,2482.00
2024-03-08T12:08:20.900Z,2481.00
2024-03-08T12:09:20.924Z,2479.00
2024-03-08T12:10:20.937Z,2473.00
2024-03-08T12:11:21.086Z,2466.00
2024-03-08T12:12:20.910Z,2450.00
2024-03-08T12:13:20.948Z,2447.00
2024-03-08T12:14:20.965Z,2445.00
2024-03-08T12:15:21.101Z,2443.00
2024-03-08T12:16:21.026Z,2440.00
2024-03-08T12:17:21.039Z,2430.00
2024-03-08T12:18:20.984Z,2428.00
2024-03-08T12:19:21.016Z,2428.00